createdAt,value
2022-11-05T00:00:18.691Z,63.38
2022-11-05T00:03:04.010Z,63.37
2022-11-05T00:05:49.945Z,63.52
2022-11-05T00:08:34.819Z,63.33
2022-11-05T00:11:01.244Z,63.45
2022-11-05T00:13:46.747Z,63.43
2022-11-05T00:16:31.404Z,63.55
2022-11-05T00:19:06.803Z,63.51
2022-11-05T00:21:53.286Z,63.49
2022-11-05T00:24:38.580Z,63.25
2022-11-05T00:27:04.964Z,63.07
2022-11-05T00:29:31.378Z,63.02
2022-11-05T00:31:57.736Z,63.24
2022-11-05T00:34:24.086Z,63.13
2022-11-05T00:36:50.442Z,63.36
2022-11-05T00:39:16.792Z,63.41
2022-11-05T00:41:43.372Z,63.37
2022-11-05T00:44:28.058Z,63.30
2022-11-05T00:47:14.382Z,63.03
2022-11-05T00:49:40.604Z,63.03
2022-11-05T00:52:25.452Z,62.69
2022-11-05T00:54:51.769Z,62.11
2022-11-05T00:57:18.104Z,63.22
2022-11-05T00:59:44.465Z,63.28
2022-11-05T01:02:10.852Z,63.52
2022-11-05T01:04:37.263Z,63.48
2022-11-05T01:07:03.592Z,64.00
2022-11-05T01:09:29.919Z,64.19
2022-11-05T01:11:56.240Z,64.34
2022-11-05T01:14:22.581Z,64.39
2022-11-05T01:16:48.912Z,65.16
2022-11-05T01:19:15.308Z,64.77
2022-11-05T01:21:41.674Z,65.07
2022-11-05T01:24:08.181Z,64.92
2022-11-05T01:26:34.527Z,65.07
2022-11-05T01:29:00.918Z,65.54
2022-11-05T01:31:28.542Z,65.22
2022-11-05T01:33:55.079Z,65.01
2022-11-05T01:36:21.430Z,65.58
2022-11-05T01:38:47.762Z,65.65
2022-11-05T01:41:14.150Z,65.28
2022-11-05T01:43:57.303Z,65.12
2022-11-05T01:46:25.666Z,65.42
2022-11-05T01:48:57.301Z,65.57
2022-11-05T01:51:28.157Z,65.22
2022-11-05T01:54:00.025Z,64.83
2022-11-05T01:56:35.374Z,64.71
2022-11-05T01:59:25.016Z,65.14
2022-11-05T02:01:51.957Z,64.94
2022-11-05T02:04:27.941Z,64.59
2022-11-05T02:06:54.486Z,65.12
2022-11-05T02:09:27.565Z,64.90
2022-11-05T02:11:54.089Z,65.45
2022-11-05T02:14:20.531Z,65.29
2022-11-05T02:17:00.995Z,65.01
2022-11-05T02:19:48.891Z,64.98
2022-11-05T02:22:31.920Z,64.94
2022-11-05T02:25:26.315Z,65.18
2022-11-05T02:28:16.694Z,64.77
2022-11-05T02:30:52.819Z,64.80
2022-11-05T02:33:41.620Z,64.81
2022-11-05T02:36:32.301Z,64.86
2022-11-05T02:39:10.812Z,65.33
2022-11-05T02:41:40.112Z,65.08
2022-11-05T02:44:20.376Z,65.03
2022-11-05T02:46:52.723Z,64.86
2022-11-05T02:49:29.848Z,65.12
2022-11-05T02:52:06.230Z,64.72
2022-11-05T02:54:38.500Z,64.84
2022-11-05T02:57:06.022Z,65.45
2022-11-05T02:59:32.504Z,65.16
2022-11-05T03:02:01.733Z,65.54
2022-11-05T03:04:29.825Z,65.35
2022-11-05T03:07:23.797Z,65.35
2022-11-05T03:10:05.407Z,65.41
2022-11-05T03:12:42.765Z,65.75
2022-11-05T03:15:19.976Z,65.45
2022-11-05T03:17:56.801Z,65.12
2022-11-05T03:20:34.204Z,65.41
2022-11-05T03:23:14.726Z,65.41
2022-11-05T03:25:49.765Z,65.28
2022-11-05T03:28:19.702Z,65.31
2022-11-05T03:30:50.289Z,65.59
2022-11-05T03:33:24.412Z,65.47
2022-11-05T03:35:55.488Z,65.77
2022-11-05T03:38:29.141Z,65.73
2022-11-05T03:40:59.667Z,65.97
2022-11-05T03:43:32.821Z,66.05
2022-11-05T03:46:04.000Z,65.87
2022-11-05T03:48:31.418Z,65.85
2022-11-05T03:51:06.818Z,65.51
2022-11-05T03:53:41.085Z,65.56
2022-11-05T03:56:18.233Z,65.74
2022-11-05T03:58:46.208Z,65.73
2022-11-05T04:01:12.821Z,65.62
2022-11-05T04:03:39.229Z,65.74
2022-11-05T04:06:26.295Z,65.66
2022-11-05T04:09:11.150Z,65.58
2022-11-05T04:11:56.528Z,65.39
2022-11-05T04:14:23.012Z,65.81
2022-11-05T04:17:08.585Z,65.63
2022-11-05T04:20:03.292Z,65.26
2022-11-05T04:22:53.245Z,65.17
2022-11-05T04:25:21.674Z,65.18
2022-11-05T04:27:49.020Z,65.51
2022-11-05T04:30:20.273Z,65.41
2022-11-05T04:32:56.552Z,65.29
2022-11-05T04:35:23.196Z,65.23
2022-11-05T04:37:49.837Z,64.98
2022-11-05T04:40:16.183Z,65.38
2022-11-05T04:42:42.506Z,65.25
2022-11-05T04:45:09.023Z,65.43
2022-11-05T04:47:35.358Z,65.38
2022-11-05T04:50:01.800Z,65.19
2022-11-05T04:52:28.205Z,65.51
2022-11-05T04:54:54.534Z,65.28
2022-11-05T04:57:20.861Z,65.38
2022-11-05T04:59:50.378Z,65.09
2022-11-05T05:02:16.814Z,65.52
2022-11-05T05:04:43.252Z,65.75
2022-11-05T05:07:09.591Z,65.61
2022-11-05T05:09:35.954Z,65.60
2022-11-05T05:12:02.673Z,65.03
2022-11-05T05:14:29.005Z,65.33
2022-11-05T05:16:55.337Z,65.41
2022-11-05T05:19:21.728Z,65.51
2022-11-05T05:21:48.088Z,65.34
2022-11-05T05:24:17.322Z,65.02
2022-11-05T05:26:46.396Z,65.09
2022-11-05T05:29:13.086Z,64.81
2022-11-05T05:31:40.294Z,65.14
2022-11-05T05:34:09.946Z,65.32
2022-11-05T05:36:36.269Z,64.98
2022-11-05T05:39:06.344Z,64.80
2022-11-05T05:41:33.009Z,65.23
2022-11-05T05:43:59.393Z,65.44
2022-11-05T05:46:25.716Z,65.38
2022-11-05T05:48:52.445Z,65.27
2022-11-05T05:51:19.650Z,64.94
2022-11-05T05:53:46.069Z,65.11
2022-11-05T05:56:15.034Z,65.40
2022-11-05T05:58:42.015Z,65.58
2022-11-05T06:01:17.226Z,65.39
2022-11-05T06:03:45.195Z,65.38
2022-11-05T06:06:15.661Z,65.77
2022-11-05T06:08:42.632Z,65.52
2022-11-05T06:11:09.522Z,65.53
2022-11-05T06:13:36.439Z,65.35
2022-11-05T06:16:08.407Z,65.48
2022-11-05T06:18:35.942Z,65.36
2022-11-05T06:21:03.879Z,65.22
2022-11-05T06:23:32.058Z,65.29
2022-11-05T06:26:03.283Z,65.55
2022-11-05T06:28:30.074Z,65.41
2022-11-05T06:30:57.698Z,65.60
2022-11-05T06:33:24.387Z,65.44
2022-11-05T06:35:50.732Z,65.48
2022-11-05T06:38:17.126Z,65.66
2022-11-05T06:40:43.567Z,65.98
2022-11-05T06:43:10.394Z,65.75
2022-11-05T06:45:36.961Z,65.65
2022-11-05T06:48:03.466Z,65.49
2022-11-05T06:50:29.908Z,65.74
2022-11-05T06:52:56.806Z,65.76
2022-11-05T06:55:24.429Z,65.65
2022-11-05T06:57:51.205Z,65.75
2022-11-05T07:00:18.170Z,65.85
2022-11-05T07:02:45.263Z,66.25
2022-11-05T07:05:12.586Z,65.68
2022-11-05T07:07:39.951Z,65.87
2022-11-05T07:10:08.636Z,66.08
2022-11-05T07:12:34.997Z,66.15
2022-11-05T07:15:01.606Z,66.24
2022-11-05T07:17:27.925Z,66.04
2022-11-05T07:19:54.264Z,66.08
2022-11-05T07:22:20.621Z,65.99
2022-11-05T07:24:47.945Z,66.21
2022-11-05T07:27:14.296Z,66.18
2022-11-05T07:29:40.646Z,65.83
2022-11-05T07:32:07.102Z,66.07
2022-11-05T07:34:33.456Z,66.02
2022-11-05T07:36:59.850Z,65.62
2022-11-05T07:39:26.188Z,65.46
2022-11-05T07:41:54.784Z,65.49
2022-11-05T07:44:21.787Z,65.63
2022-11-05T07:46:48.100Z,65.36
2022-11-05T07:49:14.462Z,65.46
2022-11-05T07:51:40.884Z,65.70
2022-11-05T07:54:07.334Z,65.92
2022-11-05T07:56:33.740Z,65.83
2022-11-05T07:59:00.411Z,65.70
2022-11-05T08:01:27.190Z,65.65
2022-11-05T08:03:53.796Z,65.66
2022-11-05T08:06:20.136Z,65.53
2022-11-05T08:08:47.605Z,65.44
2022-11-05T08:11:13.971Z,65.40
2022-11-05T08:13:40.378Z,65.49
2022-11-05T08:16:07.704Z,65.64
2022-11-05T08:18:34.125Z,65.63
2022-11-05T08:21:02.741Z,65.75
2022-11-05T08:23:30.635Z,65.53
2022-11-05T08:25:57.895Z,65.65
2022-11-05T08:28:26.217Z,65.77
2022-11-05T08:30:54.411Z,65.68
2022-11-05T08:33:21.902Z,65.58
2022-11-05T08:35:48.452Z,65.69
2022-11-05T08:38:18.234Z,65.32
2022-11-05T08:40:46.596Z,65.22
2022-11-05T08:43:14.474Z,65.10
2022-11-05T08:45:41.334Z,65.26
2022-11-05T08:48:10.395Z,65.47
2022-11-05T08:50:37.783Z,65.22
2022-11-05T08:53:05.498Z,65.32
2022-11-05T08:55:32.304Z,65.30
2022-11-05T08:58:00.881Z,65.30
2022-11-05T09:00:29.235Z,65.13
2022-11-05T09:02:58.906Z,65.25
2022-11-05T09:05:25.259Z,65.31
2022-11-05T09:07:53.172Z,65.18
2022-11-05T09:10:23.491Z,65.23
2022-11-05T09:12:49.932Z,64.87
2022-11-05T09:15:16.403Z,64.99
2022-11-05T09:17:42.738Z,64.96
2022-11-05T09:20:14.762Z,65.01
2022-11-05T09:22:43.401Z,64.93
2022-11-05T09:25:10.247Z,64.90
2022-11-05T09:27:36.579Z,64.98
2022-11-05T09:30:03.620Z,64.95
2022-11-05T09:32:33.646Z,64.76
2022-11-05T09:35:01.092Z,64.61
2022-11-05T09:37:28.379Z,64.46
2022-11-05T09:39:54.981Z,64.30
2022-11-05T09:42:25.228Z,64.18
2022-11-05T09:45:05.254Z,64.49
2022-11-05T09:47:45.812Z,64.18
2022-11-05T09:50:16.553Z,63.95
2022-11-05T09:52:43.181Z,64.02
2022-11-05T09:55:20.773Z,63.88
2022-11-05T09:57:53.275Z,64.17
2022-11-05T10:00:20.044Z,63.73
2022-11-05T10:02:57.342Z,63.45
2022-11-05T10:05:25.947Z,63.45
2022-11-05T10:08:24.399Z,63.57
2022-11-05T10:10:56.353Z,63.42
2022-11-05T10:13:35.933Z,63.41
2022-11-05T10:16:24.481Z,63.53
2022-11-05T10:19:37.460Z,63.57
2022-11-05T10:22:16.394Z,63.31
2022-11-05T10:24:47.025Z,63.04
2022-11-05T10:27:27.856Z,63.01
2022-11-05T10:29:54.350Z,63.04
2022-11-05T10:32:30.083Z,63.04
2022-11-05T10:34:59.992Z,62.78
2022-11-05T10:37:27.646Z,62.14
2022-11-05T10:39:55.080Z,62.44
2022-11-05T10:42:30.447Z,62.29
2022-11-05T10:45:05.726Z,62.36
2022-11-05T10:48:16.926Z,62.14
2022-11-05T10:50:44.021Z,61.91
2022-11-05T10:53:16.740Z,61.89
2022-11-05T10:55:50.936Z,61.50
2022-11-05T10:58:17.205Z,61.01
2022-11-05T11:01:00.007Z,61.25
2022-11-05T11:03:34.637Z,60.97
2022-11-05T11:06:04.572Z,60.73
2022-11-05T11:08:35.371Z,60.56
2022-11-05T11:11:12.018Z,60.63
2022-11-05T11:13:56.719Z,60.13
2022-11-05T11:16:27.015Z,60.09
2022-11-05T11:19:00.716Z,60.16
2022-11-05T11:21:28.681Z,60.19
2022-11-05T11:24:06.916Z,59.90
2022-11-05T11:26:37.854Z,60.21
2022-11-05T11:29:22.835Z,60.22
2022-11-05T11:31:49.251Z,59.51
2022-11-05T11:34:24.693Z,59.72
2022-11-05T11:36:55.328Z,59.48
2022-11-05T11:39:25.489Z,59.13
2022-11-05T11:41:55.685Z,58.53
2022-11-05T11:44:39.530Z,59.07
2022-11-05T11:47:12.069Z,58.79
2022-11-05T11:49:41.527Z,58.82
2022-11-05T11:52:15.764Z,58.38
2022-11-05T11:54:42.298Z,57.73
2022-11-05T11:57:25.707Z,57.32
2022-11-05T12:00:08.236Z,57.26
2022-11-05T12:03:14.672Z,56.76
2022-11-05T12:05:48.089Z,57.50
2022-11-05T12:08:42.887Z,57.16
2022-11-05T12:11:29.806Z,56.85
2022-11-05T12:14:12.872Z,56.80
2022-11-05T12:16:52.578Z,56.23
2022-11-05T12:19:46.957Z,55.96
2022-11-05T12:22:36.520Z,55.82
2022-11-05T12:25:24.558Z,55.33
2022-11-05T12:28:29.030Z,55.54
2022-11-05T12:31:22.931Z,55.27
2022-11-05T12:34:04.491Z,54.94
2022-11-05T12:36:30.780Z,54.30
2022-11-05T12:39:00.015Z,53.63
2022-11-05T12:41:43.518Z,54.42
2022-11-05T12:44:54.442Z,53.56
2022-11-05T12:47:49.232Z,53.45
2022-11-05T12:50:26.426Z,52.97
2022-11-05T12:53:22.308Z,52.97
2022-11-05T12:55:50.208Z,52.52
2022-11-05T12:58:26.801Z,52.72
2022-11-05T13:01:00.293Z,52.77
2022-11-05T13:03:42.392Z,53.12
2022-11-05T13:06:24.168Z,52.94
2022-11-05T13:09:02.206Z,52.85
2022-11-05T13:11:44.451Z,52.93
2022-11-05T13:14:18.214Z,53.17
2022-11-05T13:16:50.888Z,53.29
2022-11-05T13:19:23.915Z,53.32
2022-11-05T13:21:56.600Z,53.33
2022-11-05T13:24:37.864Z,53.25
2022-11-05T13:27:52.698Z,52.83
2022-11-05T13:30:26.106Z,52.86
2022-11-05T13:33:01.931Z,52.52
2022-11-05T13:35:45.078Z,52.73
2022-11-05T13:38:40.788Z,52.70
2022-11-05T13:41:36.150Z,52.59
2022-11-05T13:44:12.098Z,52.83
2022-11-05T13:46:57.149Z,53.50
2022-11-05T13:50:06.729Z,53.29
2022-11-05T13:53:14.659Z,53.27
2022-11-05T13:55:52.474Z,53.51
2022-11-05T13:58:48.050Z,53.22
2022-11-05T14:01:21.795Z,53.31
2022-11-05T14:03:51.207Z,53.16
2022-11-05T14:06:37.850Z,53.30
2022-11-05T14:09:20.102Z,52.93
2022-11-05T14:11:53.784Z,53.04
2022-11-05T14:14:25.852Z,52.78
2022-11-05T14:17:12.961Z,53.08
2022-11-05T14:20:07.046Z,52.95
2022-11-05T14:22:33.377Z,52.81
2022-11-05T14:25:18.363Z,52.84
2022-11-05T14:27:49.227Z,52.84
2022-11-05T14:30:45.316Z,52.82
2022-11-05T14:33:25.711Z,53.30
2022-11-05T14:35:53.854Z,52.82
2022-11-05T14:38:23.430Z,52.79
2022-11-05T14:40:59.101Z,52.79
2022-11-05T14:43:27.842Z,52.55
2022-11-05T14:46:00.731Z,52.81
2022-11-05T14:48:42.084Z,52.77
2022-11-05T14:51:24.937Z,52.64
2022-11-05T14:54:03.058Z,52.59
2022-11-05T14:56:42.356Z,52.56
2022-11-05T14:59:24.105Z,52.80
2022-11-05T15:01:50.514Z,52.39
2022-11-05T15:04:33.326Z,52.66
2022-11-05T15:07:02.497Z,52.25
2022-11-05T15:09:50.957Z,52.30
2022-11-05T15:12:19.787Z,51.88
2022-11-05T15:14:58.325Z,52.28
2022-11-05T15:17:40.816Z,51.82
2022-11-05T15:20:17.701Z,51.84
2022-11-05T15:22:48.970Z,51.87
2022-11-05T15:25:46.701Z,52.19
2022-11-05T15:28:36.965Z,52.07
2022-11-05T15:31:12.533Z,52.27
2022-11-05T15:33:47.640Z,52.18
2022-11-05T15:36:23.979Z,52.30
2022-11-05T15:39:08.484Z,51.98
2022-11-05T15:41:38.065Z,52.04
2022-11-05T15:44:04.540Z,51.96
2022-11-05T15:46:31.239Z,51.85
2022-11-05T15:49:03.728Z,52.34
2022-11-05T15:51:30.280Z,52.08
2022-11-05T15:56:55.754Z,52.42
2022-11-05T15:59:24.370Z,52.28
2022-11-05T16:02:05.074Z,52.51
2022-11-05T16:04:34.433Z,52.67
2022-11-05T16:07:08.955Z,52.65
2022-11-05T16:09:39.903Z,52.89
2022-11-05T16:12:27.296Z,52.84
2022-11-05T16:15:04.305Z,53.16
2022-11-05T16:17:44.559Z,52.88
2022-11-05T16:20:32.124Z,53.43
2022-11-05T16:23:01.087Z,53.46
2022-11-05T16:25:37.576Z,53.56
2022-11-05T16:28:06.711Z,53.74
2022-11-05T16:30:33.150Z,53.88
2022-11-05T16:33:04.776Z,54.05
2022-11-05T16:35:31.385Z,54.17
2022-11-05T16:38:01.161Z,54.27
2022-11-05T16:40:27.534Z,54.41
2022-11-05T16:42:54.523Z,54.48
2022-11-05T16:45:24.074Z,54.52
2022-11-05T16:47:50.941Z,54.59
2022-11-05T16:50:24.536Z,54.53
2022-11-05T16:52:51.216Z,54.65
2022-11-05T16:55:19.022Z,55.01
2022-11-05T16:57:49.182Z,54.89
2022-11-05T17:00:17.891Z,54.83
2022-11-05T17:02:45.140Z,54.94
2022-11-05T17:05:26.828Z,54.83
2022-11-05T17:07:54.111Z,54.96
2022-11-05T17:10:21.793Z,55.00
2022-11-05T17:12:48.585Z,55.12
2022-11-05T17:15:22.692Z,55.09
2022-11-05T17:17:49.776Z,55.23
2022-11-05T17:20:39.864Z,55.40
2022-11-05T17:23:12.431Z,55.16
2022-11-05T17:25:45.819Z,55.40
2022-11-05T17:28:13.387Z,55.63
2022-11-05T17:30:41.648Z,55.64
2022-11-05T17:33:09.319Z,55.64
2022-11-05T17:35:38.281Z,55.76
2022-11-05T17:38:04.838Z,55.89
2022-11-05T17:40:33.481Z,55.96
2022-11-05T17:42:59.817Z,55.79
2022-11-05T17:45:26.132Z,55.84
2022-11-05T17:47:52.650Z,55.58
2022-11-05T17:50:19.375Z,56.05
2022-11-05T17:52:46.045Z,56.10
2022-11-05T17:55:17.197Z,55.93
2022-11-05T17:57:46.073Z,56.03
2022-11-05T18:00:14.617Z,55.91
2022-11-05T18:02:41.096Z,55.90
2022-11-05T18:05:08.014Z,55.96
2022-11-05T18:07:34.396Z,56.05
2022-11-05T18:10:00.764Z,56.08
2022-11-05T18:12:27.141Z,56.11
2022-11-05T18:14:53.469Z,56.04
2022-11-05T18:17:19.820Z,56.25
2022-11-05T18:19:46.183Z,56.36
2022-11-05T18:22:12.529Z,56.34
2022-11-05T18:24:38.866Z,56.39
2022-11-05T18:27:05.222Z,56.29
2022-11-05T18:29:31.601Z,56.28
2022-11-05T18:31:58.023Z,56.52
2022-11-05T18:34:24.450Z,56.58
2022-11-05T18:36:56.008Z,56.05
2022-11-05T18:39:23.163Z,56.33
2022-11-05T18:41:49.544Z,56.50
2022-11-05T18:44:16.668Z,56.60
2022-11-05T18:46:57.601Z,56.61
2022-11-05T18:49:25.407Z,56.51
2022-11-05T18:51:51.744Z,56.71
2022-11-05T18:54:18.108Z,56.72
2022-11-05T18:56:47.291Z,56.72
2022-11-05T18:59:44.661Z,56.88
2022-11-05T19:02:03.613Z,56.80
2022-11-05T19:04:30.552Z,56.91
2022-11-05T19:07:00.199Z,57.01
2022-11-05T19:09:30.720Z,56.94
2022-11-05T19:11:57.109Z,57.07
2022-11-05T19:14:23.779Z,57.14
2022-11-05T19:16:50.137Z,57.17
2022-11-05T19:19:16.537Z,57.13
2022-11-05T19:21:42.880Z,57.10
2022-11-05T19:24:10.243Z,57.20
2022-11-05T19:26:36.630Z,57.38
2022-11-05T19:29:03.659Z,57.27
2022-11-05T19:31:31.387Z,57.25
2022-11-05T19:33:58.192Z,57.19
2022-11-05T19:36:25.281Z,57.06
2022-11-05T19:38:59.908Z,57.07
2022-11-05T19:41:26.826Z,57.16
2022-11-05T19:43:54.829Z,57.00
2022-11-05T19:46:22.929Z,56.78
2022-11-05T19:48:49.780Z,56.83
2022-11-05T19:51:22.261Z,56.83
2022-11-05T19:53:51.245Z,56.76
2022-11-05T19:56:20.383Z,56.80
2022-11-05T19:58:47.006Z,56.81
2022-11-05T20:01:15.549Z,56.85
2022-11-05T20:03:42.119Z,56.41
2022-11-05T20:06:11.688Z,56.64
2022-11-05T20:08:53.425Z,56.72
2022-11-05T20:11:25.580Z,56.52
2022-11-05T20:13:52.134Z,56.51
2022-11-05T20:16:24.584Z,56.38
2022-11-05T20:18:51.324Z,56.34
2022-11-05T20:21:18.694Z,56.22
2022-11-05T20:23:45.034Z,56.31
2022-11-05T20:26:12.511Z,56.48
2022-11-05T20:28:40.358Z,56.49
2022-11-05T20:31:17.679Z,56.65
2022-11-05T20:33:45.265Z,56.55
2022-11-05T20:36:16.990Z,56.60
2022-11-05T20:38:47.156Z,56.60
2022-11-05T20:41:13.635Z,56.49
2022-11-05T20:43:41.018Z,56.51
2022-11-05T20:46:09.301Z,56.65
2022-11-05T20:48:35.981Z,56.60
2022-11-05T20:51:07.818Z,56.58
2022-11-05T20:53:35.381Z,56.55
2022-11-05T20:56:07.453Z,56.56
2022-11-05T20:58:35.360Z,56.49
2022-11-05T21:01:02.084Z,56.59
2022-11-05T21:03:28.550Z,56.39
2022-11-05T21:05:59.744Z,56.37
2022-11-05T21:08:27.274Z,56.33
2022-11-05T21:10:54.668Z,56.36
2022-11-05T21:13:21.904Z,56.49
2022-11-05T21:15:51.380Z,56.37
2022-11-05T21:18:19.335Z,56.66
2022-11-05T21:20:46.793Z,56.79
2022-11-05T21:23:13.926Z,56.66
2022-11-05T21:25:43.855Z,56.69
2022-11-05T21:28:11.981Z,56.86
2022-11-05T21:30:41.824Z,56.93
2022-11-05T21:33:08.809Z,56.99
2022-11-05T21:35:39.257Z,56.92
2022-11-05T21:38:05.604Z,57.05
2022-11-05T21:40:32.665Z,56.94
2022-11-05T21:42:59.010Z,57.12
2022-11-05T21:45:25.949Z,57.05
2022-11-05T21:47:52.401Z,57.07
2022-11-05T21:50:21.939Z,57.35
2022-11-05T21:53:07.234Z,57.07
2022-11-05T21:55:52.189Z,57.12
2022-11-05T21:58:37.485Z,57.26
2022-11-05T22:01:03.947Z,57.16
2022-11-05T22:03:30.291Z,57.17
2022-11-05T22:05:57.049Z,57.12
2022-11-05T22:08:23.409Z,57.28
2022-11-05T22:10:49.749Z,57.14
2022-11-05T22:13:16.716Z,57.32
2022-11-05T22:15:43.041Z,57.39
2022-11-05T22:18:09.604Z,57.35
2022-11-05T22:20:39.174Z,57.57
2022-11-05T22:23:10.837Z,57.29
2022-11-05T22:25:37.946Z,56.98
2022-11-05T22:28:04.494Z,57.17
2022-11-05T22:30:34.483Z,57.25
2022-11-05T22:33:01.365Z,57.44
2022-11-05T22:35:28.089Z,57.10
2022-11-05T22:37:54.501Z,57.43
2022-11-05T22:40:23.804Z,57.34
2022-11-05T22:42:50.535Z,57.25
2022-11-05T22:45:16.904Z,57.34
2022-11-05T22:47:43.232Z,57.41
2022-11-05T22:50:09.808Z,57.36
2022-11-05T22:52:36.146Z,57.20
2022-11-05T22:55:04.860Z,57.25
2022-11-05T22:57:31.199Z,57.29
2022-11-05T22:59:57.506Z,57.23
2022-11-05T23:02:24.166Z,57.28
2022-11-05T23:04:53.843Z,57.36
2022-11-05T23:07:39.031Z,57.37
2022-11-05T23:10:24.162Z,57.23
2022-11-05T23:12:50.641Z,57.28
2022-11-05T23:15:35.370Z,57.50
2022-11-05T23:18:20.652Z,57.36
2022-11-05T23:21:05.322Z,57.24
2022-11-05T23:23:50.216Z,57.22
2022-11-05T23:26:35.477Z,57.25
2022-11-05T23:29:01.888Z,57.21
2022-11-05T23:31:47.109Z,57.53
2022-11-05T23:34:13.451Z,57.37
2022-11-05T23:36:58.441Z,57.58
2022-11-05T23:39:24.785Z,57.72
2022-11-05T23:42:10.162Z,57.36
2022-11-05T23:44:55.095Z,57.63
2022-11-05T23:47:39.692Z,57.50
2022-11-05T23:50:06.164Z,57.62
2022-11-05T23:52:32.688Z,57.54
2022-11-05T23:54:59.050Z,57.58
2022-11-05T23:57:25.380Z,57.38
2022-11-05T23:59:51.756Z,57.25
